Time;durP1;ratioP1;P1;durP2;ratioP2;P2;SDS_P1;SDS_P2;PMS_P1;PMS_P2;Temp;Humidity;BMP_temperature;BMP_pressure;BME280_temperature;BME280_humidity;BME280_pressure;Samples;Min_cycle;Max_cycle;Signal;HPM_P1;HPM_P2
2022/01/06 00:00:01;;;;;;;16.40;3.42;;;;;;;2.37;88.17;101523.50;5018468;28;20040;-64
2022/01/06 00:02:26;;;;;;;15.95;3.28;;;;;;;2.36;88.42;101521.81;5013529;28;20132;-64
2022/01/06 00:04:52;;;;;;;17.73;3.33;;;;;;;2.29;88.31;101516.06;5018308;28;20100;-64
2022/01/06 00:07:17;;;;;;;16.55;2.80;;;;;;;2.30;88.26;101522.03;5017254;28;20033;-64
2022/01/06 00:09:43;;;;;;;17.83;3.10;;;;;;;2.25;88.45;101521.38;5027473;28;20025;-64
2022/01/06 00:12:12;;;;;;;15.27;2.63;;;;;;;2.25;88.20;101523.94;5023708;28;20033;-64
2022/01/06 00:14:41;;;;;;;13.32;2.83;;;;;;;2.22;87.99;101529.16;5026558;28;20028;-65
2022/01/06 00:18:14;;;;;;;16.45;3.47;;;;;;;2.16;88.22;101534.47;4984563;28;20025;-64
2022/01/06 00:25:29;;;;;;;16.02;3.00;;;;;;;2.09;88.31;101544.09;5020158;28;20035;-64
2022/01/06 00:27:54;;;;;;;15.70;2.88;;;;;;;2.07;88.03;101544.16;5026043;28;20038;-64
2022/01/06 00:30:19;;;;;;;16.45;3.25;;;;;;;2.07;88.61;101541.59;5007008;28;20056;-65
2022/01/06 00:32:45;;;;;;;15.75;3.47;;;;;;;2.02;88.15;101538.38;5026654;28;20380;-64
2022/01/06 00:35:10;;;;;;;14.93;3.10;;;;;;;2.02;88.08;101546.03;5008596;28;20462;-64
2022/01/06 00:37:35;;;;;;;16.17;3.25;;;;;;;2.00;88.09;101550.34;4994362;28;20465;-64
2022/01/06 00:40:00;;;;;;;18.83;3.40;;;;;;;1.99;88.55;101553.81;5021147;28;20033;-64
2022/01/06 00:42:26;;;;;;;17.58;3.30;;;;;;;1.94;88.64;101552.28;5019742;28;20030;-64
2022/01/06 00:44:51;;;;;;;15.38;2.70;;;;;;;1.92;88.46;101557.47;5010187;28;20042;-64
2022/01/06 00:47:20;;;;;;;17.85;2.90;;;;;;;1.89;88.05;101556.72;5011296;28;20026;-64
2022/01/06 00:49:46;;;;;;;16.35;2.83;;;;;;;1.85;88.16;101556.00;5011346;28;20076;-64
2022/01/06 00:52:11;;;;;;;18.88;3.55;;;;;;;1.85;88.29;101561.13;5009861;28;20482;-64
2022/01/06 00:54:36;;;;;;;21.67;3.20;;;;;;;1.85;88.62;101561.13;5010928;28;20026;-65
2022/01/06 00:57:02;;;;;;;15.10;3.00;;;;;;;1.81;88.55;101559.56;4988211;28;20498;-64
2022/01/06 00:59:27;;;;;;;13.38;3.05;;;;;;;1.76;88.56;101558.88;5011024;28;20029;-65
2022/01/06 01:01:52;;;;;;;21.38;3.42;;;;;;;1.76;88.43;101562.25;5009981;28;20033;-65
2022/01/06 01:04:18;;;;;;;20.83;3.40;;;;;;;1.78;88.99;101559.66;5012669;28;20026;-64
2022/01/06 01:06:43;;;;;;;14.35;3.20;;;;;;;1.76;88.96;101556.31;5010696;28;20478;-64
2022/01/06 01:09:09;;;;;;;18.42;3.28;;;;;;;1.76;88.83;101557.13;4995299;28;20529;-64
2022/01/06 01:11:34;;;;;;;18.90;3.33;;;;;;;1.78;88.75;101557.13;5011448;28;20030;-64
2022/01/06 01:14:16;;;;;;;13.18;3.55;;;;;;;1.76;88.63;101551.19;5022124;28;20032;-64
2022/01/06 01:16:41;;;;;;;15.90;3.30;;;;;;;1.77;88.95;101552.84;4992669;28;20033;-64
2022/01/06 01:19:10;;;;;;;16.10;3.42;;;;;;;1.75;88.89;101554.63;5009797;28;20386;-64
2022/01/06 01:21:35;;;;;;;16.98;3.60;;;;;;;1.75;88.74;101557.19;5010441;28;20424;-64
2022/01/06 01:24:01;;;;;;;14.70;3.00;;;;;;;1.74;88.67;101555.53;5010783;28;20462;-64
2022/01/06 01:26:27;;;;;;;16.30;3.25;;;;;;;1.76;88.45;101556.31;5010577;28;20056;-64
2022/01/06 01:28:53;;;;;;;17.48;3.38;;;;;;;1.73;88.38;101561.53;5010318;28;20068;-64
2022/01/06 01:33:49;;;;;;;17.60;3.45;;;;;;;1.73;88.90;101566.66;5010640;28;20048;-65
2022/01/06 01:36:14;;;;;;;16.77;3.50;;;;;;;1.71;87.98;101568.41;5010553;28;20049;-65
2022/01/06 01:38:40;;;;;;;19.17;3.35;;;;;;;1.66;88.20;101576.22;5010148;28;20026;-65
2022/01/06 01:41:07;;;;;;;18.77;3.70;;;;;;;1.68;88.96;101578.75;4988913;28;20113;-65
2022/01/06 01:43:33;;;;;;;17.25;3.58;;;;;;;1.63;88.54;101578.06;4988497;28;20475;-64
2022/01/06 01:46:08;;;;;;;16.63;3.53;;;;;;;1.59;88.46;101590.94;4996421;28;20041;-64
2022/01/06 01:48:36;;;;;;;16.83;3.70;;;;;;;1.60;88.38;101596.88;4990864;28;20101;-65
2022/01/06 01:51:01;;;;;;;17.58;3.60;;;;;;;1.62;88.28;101604.53;4991415;28;20027;-64
2022/01/06 01:53:27;;;;;;;13.75;3.17;;;;;;;1.59;88.39;101605.44;4986821;28;20046;-64
2022/01/06 01:55:52;;;;;;;15.02;3.75;;;;;;;1.56;88.24;101610.66;4992140;28;20026;-65
2022/01/06 01:58:18;;;;;;;15.15;3.60;;;;;;;1.52;88.51;101609.91;4973148;28;20126;-65
2022/01/06 02:00:44;;;;;;;15.27;3.45;;;;;;;1.52;88.37;101614.19;4990504;28;20034;-66
2022/01/06 02:03:09;;;;;;;15.82;3.58;;;;;;;1.47;88.39;101622.00;4990674;28;20049;-65
2022/01/06 02:05:35;;;;;;;17.33;3.78;;;;;;;1.50;88.24;101632.13;4990833;28;20128;-65
2022/01/06 02:08:01;;;;;;;19.05;4.25;;;;;;;1.45;88.56;101628.88;4990678;28;20394;-65
2022/01/06 02:10:28;;;;;;;13.90;3.65;;;;;;;1.45;88.37;101628.88;4990500;28;20446;-65
2022/01/06 02:12:55;;;;;;;15.20;3.47;;;;;;;1.43;88.19;101620.41;4988825;28;20483;-65
2022/01/06 02:15:21;;;;;;;19.35;3.83;;;;;;;1.39;88.57;101626.53;4990910;28;20078;-65
2022/01/06 02:17:47;;;;;;;11.88;3.20;;;;;;;1.41;88.31;101627.28;4992265;28;20022;-65
2022/01/06 02:20:16;;;;;;;18.50;3.88;;;;;;;1.38;88.71;101636.75;4991553;28;20088;-65
2022/01/06 02:22:42;;;;;;;13.23;3.63;;;;;;;1.38;88.36;101642.75;4990358;28;20038;-66
2022/01/06 02:25:18;;;;;;;17.45;3.90;;;;;;;1.36;88.58;101641.09;4988344;28;20527;-65
2022/01/06 02:27:49;;;;;;;14.90;3.85;;;;;;;1.35;88.37;101642.81;4992590;28;20513;-66
2022/01/06 02:30:16;;;;;;;15.23;3.95;;;;;;;1.31;88.41;101636.13;4994854;28;20116;-65
2022/01/06 02:32:41;;;;;;;12.80;3.85;;;;;;;1.31;88.37;101636.13;5004598;28;20030;-65
2022/01/06 02:35:10;;;;;;;17.13;3.78;;;;;;;1.26;88.42;101640.53;4990435;28;20030;-65
2022/01/06 02:37:35;;;;;;;17.50;3.72;;;;;;;1.27;88.02;101644.78;4994443;28;20030;-65
2022/01/06 02:40:01;;;;;;;16.45;4.13;;;;;;;1.24;88.33;101647.41;4995541;28;20179;-65
2022/01/06 02:42:28;;;;;;;16.30;3.85;;;;;;;1.22;88.58;101646.63;4999100;28;20030;-65
2022/01/06 02:44:53;;;;;;;17.35;3.95;;;;;;;1.24;88.64;101649.97;5019030;28;20459;-65
2022/01/06 02:47:19;;;;;;;12.85;3.40;;;;;;;1.22;88.29;101646.63;5022412;28;20539;-65
2022/01/06 02:49:44;;;;;;;17.58;3.58;;;;;;;1.17;88.43;101638.25;5013293;28;20040;-65
2022/01/06 02:52:10;;;;;;;14.80;3.85;;;;;;;1.15;88.90;101640.00;5013757;28;20494;-65
2022/01/06 02:54:35;;;;;;;12.80;3.33;;;;;;;1.12;88.45;101645.22;5002188;28;20033;-65
2022/01/06 02:57:03;;;;;;;11.43;3.40;;;;;;;1.10;88.53;101636.78;5017116;28;20037;-65
2022/01/06 02:59:28;;;;;;;16.23;3.70;;;;;;;1.10;88.81;101641.88;5024807;28;20033;-65
2022/01/06 03:01:54;;;;;;;16.83;3.88;;;;;;;1.09;88.64;101640.19;5018783;28;20030;-65
2022/01/06 03:04:20;;;;;;;15.93;4.00;;;;;;;1.10;89.03;101632.50;5022252;28;20029;-65
2022/01/06 03:06:46;;;;;;;12.07;3.38;;;;;;;1.09;88.58;101643.59;5015436;28;20030;-65
2022/01/06 03:09:11;;;;;;;13.23;3.53;;;;;;;1.08;88.84;101643.63;5012694;28;20029;-65
2022/01/06 03:11:41;;;;;;;14.25;3.58;;;;;;;1.06;88.63;101639.41;5023475;28;20418;-65
2022/01/06 03:14:07;;;;;;;16.50;3.70;;;;;;;1.05;88.52;101640.28;5030237;28;20109;-65
2022/01/06 03:16:32;;;;;;;16.45;3.60;;;;;;;1.05;88.47;101645.41;5025181;28;20104;-65
2022/01/06 03:18:58;;;;;;;17.92;4.05;;;;;;;1.05;89.02;101660.72;5032212;28;20504;-65
2022/01/06 03:21:23;;;;;;;15.15;4.28;;;;;;;1.06;89.04;101667.50;5012594;28;20045;-65
2022/01/06 03:23:48;;;;;;;16.50;4.05;;;;;;;1.02;88.75;101665.06;5014909;28;20496;-65
2022/01/06 03:26:14;;;;;;;19.30;3.90;;;;;;;1.04;88.80;101668.44;5032104;28;20469;-65
2022/01/06 03:28:39;;;;;;;16.35;3.40;;;;;;;1.05;88.89;101670.13;5011373;28;20044;-65
2022/01/06 03:31:05;;;;;;;14.30;3.20;;;;;;;1.08;88.73;101671.72;5019694;28;20521;-65
2022/01/06 03:33:30;;;;;;;15.45;3.33;;;;;;;1.06;88.79;101672.63;5017904;28;20033;-65
2022/01/06 03:35:55;;;;;;;18.25;3.83;;;;;;;1.10;89.17;101667.44;5008499;28;20179;-65
2022/01/06 03:38:21;;;;;;;19.15;3.58;;;;;;;1.10;89.58;101657.22;5014314;28;20028;-65
2022/01/06 03:40:46;;;;;;;14.85;2.80;;;;;;;1.13;89.19;101662.22;5013957;28;20024;-66
2022/01/06 03:43:12;;;;;;;18.23;2.90;;;;;;;1.16;89.19;101659.59;5002819;28;20502;-65
2022/01/06 03:45:37;;;;;;;14.75;2.47;;;;;;;1.20;89.45;101658.59;4993181;28;20065;-65
2022/01/06 03:48:06;;;;;;;15.82;2.80;;;;;;;1.23;89.18;101654.25;4991804;28;20027;-65
2022/01/06 03:50:32;;;;;;;15.07;2.65;;;;;;;1.25;88.94;101656.75;4992718;28;20022;-65
2022/01/06 03:52:58;;;;;;;13.52;2.80;;;;;;;1.29;88.64;101668.56;4992727;28;20023;-65
2022/01/06 03:55:23;;;;;;;13.65;2.55;;;;;;;1.31;88.60;101662.50;4990118;28;20034;-65
2022/01/06 03:57:49;;;;;;;17.63;2.53;;;;;;;1.31;88.56;101671.91;4992590;28;20809;-65
2022/01/06 04:00:17;;;;;;;13.50;2.47;;;;;;;1.33;88.86;101673.53;4991771;28;20406;-65
2022/01/06 04:02:43;;;;;;;14.65;2.67;;;;;;;1.33;88.60;101665.03;4980250;28;20018;-65
2022/01/06 04:05:11;;;;;;;15.55;2.47;;;;;;;1.35;88.80;101668.38;4975240;28;20022;-66
2022/01/06 04:07:37;;;;;;;12.13;2.22;;;;;;;1.33;88.57;101672.72;4992139;28;20030;-65
2022/01/06 04:10:04;;;;;;;9.57;2.00;;;;;;;1.32;88.81;101678.72;4991032;28;20113;-66
2022/01/06 04:12:33;;;;;;;13.20;2.83;;;;;;;1.31;88.40;101677.84;4992131;28;20034;-65
2022/01/06 04:14:58;;;;;;;;;;;;;;;1.40;88.30;101681.88;4984968;28;20033;-65
2022/01/06 04:17:25;;;;;;;12.63;2.47;;;;;;;1.31;88.36;101682.97;4990312;28;19917;-65
2022/01/06 04:19:50;;;;;;;12.82;2.50;;;;;;;1.27;88.56;101686.50;4992029;28;20622;-66
2022/01/06 04:22:16;;;;;;;10.93;2.40;;;;;;;1.26;88.54;101678.84;4991883;28;20466;-65
2022/01/06 04:24:41;;;;;;;12.73;2.00;;;;;;;1.23;88.36;101689.19;4991762;28;20105;-65
2022/01/06 04:27:07;;;;;;;13.55;2.33;;;;;;;1.22;88.15;101692.63;4986833;28;20037;-65
2022/01/06 04:29:32;;;;;;;14.20;2.50;;;;;;;1.20;88.34;101694.38;4990689;28;20073;-65
2022/01/06 04:31:57;;;;;;;12.75;2.45;;;;;;;1.16;88.75;101693.63;4991784;28;20113;-65
2022/01/06 04:34:23;;;;;;;15.57;3.58;;;;;;;1.15;88.15;101702.19;4991353;28;20038;-65
2022/01/06 04:36:52;;;;;;;13.15;3.00;;;;;;;1.13;88.15;101703.94;4991480;28;20457;-65
2022/01/06 04:39:18;;;;;;;13.95;2.88;;;;;;;1.11;88.22;101694.66;4990052;28;20029;-65
2022/01/06 04:41:44;;;;;;;16.73;3.13;;;;;;;1.06;88.26;101705.81;4998633;28;20058;-65
2022/01/06 04:44:09;;;;;;;17.48;3.42;;;;;;;1.06;88.33;101698.16;5002551;28;20057;-65
2022/01/06 04:46:35;;;;;;;16.50;2.50;;;;;;;1.06;88.56;101703.28;5008222;28;20419;-66
2022/01/06 04:49:00;;;;;;;12.43;2.83;;;;;;;1.04;88.13;101707.59;5018949;28;20029;-65
2022/01/06 04:51:25;;;;;;;20.13;3.40;;;;;;;1.01;88.44;101710.22;4992476;28;20042;-65
2022/01/06 04:53:50;;;;;;;15.82;3.17;;;;;;;1.00;88.47;101716.22;5000864;28;20040;-65
2022/01/06 04:56:16;;;;;;;13.43;3.17;;;;;;;1.00;88.46;101708.56;4984499;28;20037;-65
2022/01/06 04:58:41;;;;;;;16.95;2.83;;;;;;;0.99;88.51;101716.25;5020169;28;20035;-65
2022/01/06 05:01:06;;;;;;;14.75;3.50;;;;;;;0.98;88.18;101720.53;5023481;28;20026;-65
2022/01/06 05:03:32;;;;;;;16.55;3.08;;;;;;;0.92;88.21;101713.03;5012057;28;20140;-65
2022/01/06 05:05:57;;;;;;;14.63;3.38;;;;;;;0.93;88.33;101722.38;5012257;28;20443;-65
2022/01/06 05:08:22;;;;;;;16.23;3.75;;;;;;;0.92;88.17;101724.94;4998584;28;20055;-65
2022/01/06 05:10:48;;;;;;;18.25;3.45;;;;;;;0.92;88.80;101725.81;5001432;28;20030;-65
2022/01/06 05:13:13;;;;;;;12.18;2.70;;;;;;;0.92;88.55;101730.94;4995756;28;20574;-65
2022/01/06 05:15:38;;;;;;;11.73;3.00;;;;;;;0.89;88.05;101730.16;5009355;28;20437;-66
2022/01/06 05:18:04;;;;;;;11.60;2.85;;;;;;;0.88;88.46;101734.44;5010455;28;20401;-65
2022/01/06 05:20:30;;;;;;;14.90;3.08;;;;;;;0.84;88.42;101732.00;4992948;28;20129;-65
2022/01/06 05:22:57;;;;;;;12.77;3.00;;;;;;;0.82;88.18;101734.59;5010758;28;20552;-65
2022/01/06 05:25:27;;;;;;;16.60;3.35;;;;;;;0.82;88.21;101742.25;5013859;28;20078;-65
2022/01/06 05:27:53;;;;;;;15.60;2.95;;;;;;;0.79;88.56;101744.88;5009951;28;20037;-65
2022/01/06 05:30:19;;;;;;;16.33;3.70;;;;;;;0.76;88.14;101739.88;4992629;28;20044;-65
2022/01/06 05:32:44;;;;;;;12.95;2.72;;;;;;;0.77;88.61;101751.75;5010155;28;20033;-65
2022/01/06 05:35:10;;;;;;;13.57;3.47;;;;;;;0.74;88.31;101746.72;5002119;28;20029;-65
2022/01/06 05:37:36;;;;;;;16.35;3.70;;;;;;;0.71;88.00;101760.41;5010176;28;20056;-65
2022/01/06 05:40:02;;;;;;;13.82;3.05;;;;;;;0.71;88.29;101759.56;5013334;28;20022;-65
2022/01/06 05:42:27;;;;;;;13.70;3.20;;;;;;;0.68;87.92;101769.84;5010201;28;20489;-65
2022/01/06 05:44:53;;;;;;;13.43;3.22;;;;;;;0.67;88.66;101766.47;5029224;28;20054;-66
2022/01/06 05:47:18;;;;;;;13.60;3.05;;;;;;;0.64;88.13;101760.59;5019182;28;20037;-65
2022/01/06 05:49:43;;;;;;;13.55;2.95;;;;;;;0.63;88.26;101764.88;5026808;28;20033;-66
2022/01/06 05:52:09;;;;;;;14.15;2.80;;;;;;;0.58;88.56;101766.72;5010422;28;20026;-65
2022/01/06 05:54:34;;;;;;;14.25;2.97;;;;;;;0.60;88.16;101770.03;5024892;28;20033;-65
2022/01/06 05:56:59;;;;;;;11.30;3.15;;;;;;;0.59;87.95;101773.47;5000233;28;20424;-65
2022/01/06 05:59:25;;;;;;;11.45;3.20;;;;;;;0.60;88.00;101769.22;5012274;28;20076;-65
2022/01/06 06:01:50;;;;;;;13.95;3.38;;;;;;;0.57;88.21;101774.38;5026265;28;20065;-65
2022/01/06 06:04:15;;;;;;;15.68;3.10;;;;;;;0.56;87.96;101782.91;5033067;28;20430;-65
2022/01/06 06:06:41;;;;;;;16.38;3.30;;;;;;;0.52;88.35;101793.22;5019643;28;20037;-65
2022/01/06 06:09:06;;;;;;;14.98;2.95;;;;;;;0.51;88.59;101786.41;5028209;28;20053;-66
2022/01/06 06:11:32;;;;;;;13.75;2.75;;;;;;;0.50;88.26;101789.00;5012851;28;20349;-65
2022/01/06 06:13:58;;;;;;;15.20;2.95;;;;;;;0.50;88.49;101786.47;5027871;28;20103;-65
2022/01/06 06:16:24;;;;;;;13.77;3.47;;;;;;;0.49;88.33;101793.28;5021826;28;20030;-65
2022/01/06 06:18:50;;;;;;;19.23;3.33;;;;;;;0.47;88.15;101797.59;5012385;28;20104;-65
2022/01/06 06:21:15;;;;;;;13.73;2.88;;;;;;;0.45;88.20;101790.84;4996777;28;20136;-65
2022/01/06 06:23:42;;;;;;;11.93;2.50;;;;;;;0.45;88.37;101806.97;5026235;28;20045;-65
2022/01/06 06:26:07;;;;;;;12.40;2.50;;;;;;;0.46;88.55;101807.81;5023570;28;20029;-65
2022/01/06 06:28:32;;;;;;;14.68;3.15;;;;;;;0.45;88.33;101809.53;5018536;28;20036;-68
2022/01/06 06:30:58;;;;;;;14.25;3.10;;;;;;;0.45;88.11;101814.63;5016506;28;20468;-65
2022/01/06 06:33:23;;;;;;;12.35;2.95;;;;;;;0.43;88.47;101813.84;5024092;28;20052;-65
2022/01/06 06:35:48;;;;;;;13.95;3.30;;;;;;;0.42;88.42;101812.16;4995848;28;20382;-66
2022/01/06 06:38:14;;;;;;;15.65;3.65;;;;;;;0.40;88.24;101802.84;5013900;28;20545;-65
2022/01/06 06:40:39;;;;;;;12.50;2.92;;;;;;;0.39;88.27;101807.13;5033455;28;20038;-65
2022/01/06 06:43:04;;;;;;;15.18;3.30;;;;;;;0.37;88.13;101811.44;5027451;28;20022;-66
2022/01/06 06:45:30;;;;;;;11.23;3.15;;;;;;;0.37;88.53;101820.81;5018490;28;20444;-65
2022/01/06 06:47:55;;;;;;;13.57;3.33;;;;;;;0.35;88.13;101825.13;5024988;28;20048;-65
2022/01/06 06:50:21;;;;;;;12.95;2.90;;;;;;;0.33;88.33;101831.94;5026365;28;20041;-65
2022/01/06 06:52:47;;;;;;;9.73;2.83;;;;;;;0.32;88.16;101831.13;5019266;28;20048;-65
2022/01/06 06:55:14;;;;;;;12.57;2.80;;;;;;;0.30;88.65;101827.78;5024038;28;20044;-65
2022/01/06 06:57:40;;;;;;;13.70;3.08;;;;;;;0.28;89.08;101829.50;5016878;28;20069;-65
2022/01/06 07:00:08;;;;;;;12.32;3.38;;;;;;;0.25;88.62;101825.31;5013240;28;20034;-65
2022/01/06 07:02:34;;;;;;;16.08;3.47;;;;;;;0.31;88.52;101842.19;5028831;23;20085;-64
2022/01/06 07:04:59;;;;;;;12.93;3.17;;;;;;;0.29;88.28;101838.84;5013162;28;20057;-65
2022/01/06 07:07:25;;;;;;;12.88;3.58;;;;;;;0.30;88.56;101840.53;5009472;28;20030;-65
2022/01/06 07:09:51;;;;;;;10.80;2.70;;;;;;;0.31;88.85;101834.53;5010003;28;20038;-65
2022/01/06 07:12:16;;;;;;;13.77;3.10;;;;;;;0.32;88.53;101850.69;5019679;28;20037;-65
2022/01/06 07:14:42;;;;;;;14.38;3.47;;;;;;;0.31;88.44;101849.84;5029322;28;20409;-66
2022/01/06 07:17:07;;;;;;;15.60;4.03;;;;;;;0.31;88.66;101854.97;5017366;28;20032;-65
2022/01/06 07:19:32;;;;;;;14.43;3.70;;;;;;;0.28;88.52;101849.91;5021787;28;20026;-65
2022/01/06 07:21:58;;;;;;;15.48;3.70;;;;;;;0.29;88.69;101863.50;5001017;28;20021;-65
2022/01/06 07:24:23;;;;;;;11.10;3.22;;;;;;;0.28;88.80;101864.38;4997125;28;20487;-65
2022/01/06 07:26:49;;;;;;;20.77;7.38;;;;;;;0.27;88.45;101858.44;4998106;28;20030;-65
2022/01/06 07:29:15;;;;;;;16.17;5.28;;;;;;;0.29;88.71;101876.25;5009891;28;20026;-65
2022/01/06 07:31:41;;;;;;;16.55;4.18;;;;;;;0.29;88.77;101877.13;5013602;28;20462;-67
2022/01/06 07:34:06;;;;;;;13.25;4.07;;;;;;;0.29;88.55;101881.38;5023000;28;20037;-65
2022/01/06 07:36:31;;;;;;;15.75;4.30;;;;;;;0.27;88.63;101873.75;5024550;28;20049;-65
2022/01/06 07:38:57;;;;;;;15.35;3.70;;;;;;;0.27;88.34;101878.84;5002083;28;20446;-65
2022/01/06 07:41:22;;;;;;;14.20;3.50;;;;;;;0.22;88.50;101871.28;5019420;28;20088;-65
2022/01/06 07:43:47;;;;;;;15.98;3.60;;;;;;;0.26;88.66;101883.13;5011459;28;20116;-65
2022/01/06 07:46:13;;;;;;;18.00;4.45;;;;;;;0.23;88.85;101872.13;5027587;28;20057;-65
2022/01/06 07:48:59;;;;;;;18.77;4.30;;;;;;;0.22;88.51;101878.94;5014075;28;20149;-66
2022/01/06 07:51:25;;;;;;;13.95;3.92;;;;;;;0.24;88.66;101878.94;5012120;28;20041;-65
2022/01/06 07:53:51;;;;;;;12.73;4.00;;;;;;;0.24;88.51;101884.03;5012028;28;20056;-65
2022/01/06 07:56:17;;;;;;;16.85;4.35;;;;;;;0.23;88.34;101882.34;5002141;28;20037;-65
2022/01/06 07:58:42;;;;;;;16.00;3.67;;;;;;;0.24;88.87;101878.94;4996190;28;20390;-65
2022/01/06 08:01:09;;;;;;;12.48;4.57;;;;;;;0.22;88.62;101885.75;5025379;28;20033;-65
2022/01/06 08:03:35;;;;;;;14.40;4.03;;;;;;;0.23;88.60;101884.88;5022243;28;20045;-65
2022/01/06 08:06:00;;;;;;;17.90;4.90;;;;;;;0.25;88.87;101890.81;5018588;28;20120;-65
2022/01/06 08:08:25;;;;;;;19.08;5.45;;;;;;;0.25;88.75;101881.44;4995167;28;20038;-65
2022/01/06 08:10:51;;;;;;;18.90;5.05;;;;;;;0.23;88.81;101887.44;5016837;28;20072;-65
2022/01/06 08:13:16;;;;;;;15.43;3.85;;;;;;;0.25;88.51;101885.72;5027703;28;20033;-66
2022/01/06 08:15:41;;;;;;;19.05;4.47;;;;;;;0.23;88.80;101877.22;5028651;28;20467;-66
2022/01/06 08:18:07;;;;;;;17.27;4.05;;;;;;;0.24;88.66;101891.69;5006775;28;20018;-66
2022/01/06 08:20:35;;;;;;;12.55;3.85;;;;;;;0.25;88.83;101890.81;4995307;28;20034;-66
2022/01/06 08:23:01;;;;;;;17.00;5.37;;;;;;;0.26;88.36;101888.22;5019807;28;20032;-66
2022/01/06 08:25:26;;;;;;;19.75;6.75;;;;;;;0.27;89.05;101894.16;5030813;28;20276;-66
2022/01/06 08:27:51;;;;;;;24.58;8.10;;;;;;;0.26;88.79;101895.03;5015902;28;20125;-65
2022/01/06 08:30:17;;;;;;;20.33;7.07;;;;;;;0.26;89.02;101897.59;5006578;28;20471;-65
2022/01/06 08:32:42;;;;;;;19.33;5.93;;;;;;;0.25;88.66;101901.03;5001034;28;20022;-66
2022/01/06 08:35:07;;;;;;;21.52;6.20;;;;;;;0.25;88.96;101901.84;4996432;28;20458;-66
2022/01/06 08:37:33;;;;;;;15.68;5.53;;;;;;;0.25;88.94;101895.91;5002906;28;20022;-65
2022/01/06 08:39:58;;;;;;;20.10;6.47;;;;;;;0.24;88.90;101894.25;4996579;28;20018;-65
2022/01/06 08:42:24;;;;;;;18.92;5.72;;;;;;;0.25;88.94;101901.84;5003420;28;20389;-67
2022/01/06 08:44:50;;;;;;;16.90;5.38;;;;;;;0.26;89.03;101912.91;5006002;28;20046;-65
2022/01/06 08:47:15;;;;;;;20.95;6.40;;;;;;;0.28;89.22;101911.16;5007412;28;20076;-65
2022/01/06 08:49:41;;;;;;;21.75;5.78;;;;;;;0.30;89.39;101914.53;5001721;28;20375;-65
2022/01/06 08:52:07;;;;;;;15.38;5.43;;;;;;;0.29;89.29;101917.97;5024588;28;20029;-65
2022/01/06 08:54:32;;;;;;;17.70;5.95;;;;;;;0.32;89.23;101917.88;5007878;28;20026;-66
2022/01/06 08:56:58;;;;;;;17.98;6.00;;;;;;;0.34;89.44;101921.22;5002031;28;20029;-65
2022/01/06 08:59:24;;;;;;;15.63;5.85;;;;;;;0.36;89.48;101911.84;5004918;28;20034;-66
2022/01/06 09:01:49;;;;;;;17.85;6.35;;;;;;;0.37;89.31;101916.06;5008757;28;20489;-65
2022/01/06 09:04:15;;;;;;;16.60;6.13;;;;;;;0.38;89.56;101922.84;5001732;28;20096;-65
2022/01/06 09:06:40;;;;;;;16.55;5.85;;;;;;;0.44;89.58;101930.34;5006115;28;20028;-65
2022/01/06 09:09:06;;;;;;;19.02;5.72;;;;;;;0.45;89.50;101928.66;4998723;28;20026;-65
2022/01/06 09:11:31;;;;;;;18.23;5.68;;;;;;;0.48;89.66;101929.44;4995549;28;20382;-67
2022/01/06 09:13:56;;;;;;;18.27;5.63;;;;;;;0.50;89.69;101934.50;4996072;28;20034;-65
2022/01/06 09:16:23;;;;;;;18.02;5.68;;;;;;;0.56;90.04;101925.88;4998466;28;20509;-65
2022/01/06 09:18:49;;;;;;;17.60;5.35;;;;;;;0.58;89.69;101930.06;4996480;28;20045;-64
2022/01/06 09:21:16;;;;;;;17.60;5.88;;;;;;;0.61;89.54;101939.38;5001155;28;20022;-65
2022/01/06 09:23:42;;;;;;;17.30;5.75;;;;;;;0.62;89.68;101941.03;5000046;28;20105;-64
2022/01/06 09:26:07;;;;;;;18.35;6.03;;;;;;;0.66;90.11;101942.66;4994866;28;20117;-64
2022/01/06 09:28:32;;;;;;;15.65;4.75;;;;;;;0.65;89.81;101930.78;5005100;28;20022;-65
2022/01/06 09:30:58;;;;;;;16.48;5.10;;;;;;;0.71;90.01;101945.94;5005908;28;20056;-64
2022/01/06 09:33:23;;;;;;;17.95;5.65;;;;;;;0.70;90.01;101941.72;5000645;28;20032;-64
2022/01/06 09:35:51;;;;;;;18.75;5.75;;;;;;;0.74;90.10;101941.59;4998770;28;20034;-64
2022/01/06 09:38:17;;;;;;;19.02;5.05;;;;;;;0.78;89.81;101952.59;4989300;28;20426;-64
2022/01/06 09:40:44;;;;;;;15.88;5.13;;;;;;;0.79;90.13;101954.25;5003679;28;20060;-64
2022/01/06 09:43:12;;;;;;;16.90;4.95;;;;;;;0.80;90.22;101963.59;5006876;28;20030;-64
2022/01/06 09:45:39;;;;;;;16.05;4.85;;;;;;;0.85;90.03;101959.22;5014330;28;20037;-65
2022/01/06 09:48:05;;;;;;;19.17;5.47;;;;;;;0.89;90.69;101967.69;5007834;28;20380;-65
2022/01/06 09:50:31;;;;;;;16.95;5.20;;;;;;;0.90;90.43;101959.97;5006231;28;20038;-64
2022/01/06 09:52:57;;;;;;;13.05;4.50;;;;;;;0.94;90.08;101969.25;5000093;28;20033;-66
2022/01/06 09:55:23;;;;;;;18.83;5.68;;;;;;;0.98;89.80;101972.59;5012438;28;20033;-65
2022/01/06 09:57:55;;;;;;;16.42;5.95;;;;;;;0.99;90.07;101972.53;5014271;28;20493;-64
2022/01/06 10:00:20;;;;;;;16.25;5.05;;;;;;;1.02;90.28;101967.34;5014300;28;20048;-64
2022/01/06 10:02:56;;;;;;;18.10;5.07;;;;;;;1.06;90.30;101968.97;4995477;28;20045;-64
2022/01/06 10:05:22;;;;;;;24.80;5.30;;;;;;;1.13;90.13;101968.81;5012370;28;20025;-64
2022/01/06 10:07:47;;;;;;;15.48;5.35;;;;;;;1.12;90.43;101967.13;5013607;28;20025;-65
2022/01/06 10:10:14;;;;;;;19.23;5.65;;;;;;;1.16;90.12;101963.63;5013879;28;20076;-65
2022/01/06 10:12:41;;;;;;;15.88;4.97;;;;;;;1.24;89.99;101971.94;5014288;28;20025;-65
2022/01/06 10:15:17;;;;;;;15.27;4.70;;;;;;;1.29;90.40;101970.13;5013759;28;20030;-65
2022/01/06 10:17:43;;;;;;;19.67;5.65;;;;;;;1.34;90.94;101963.19;5013886;28;20442;-65
2022/01/06 10:20:14;;;;;;;20.48;4.97;;;;;;;1.38;90.55;101959.69;5014344;28;20534;-65
2022/01/06 10:22:50;;;;;;;21.70;5.63;;;;;;;1.44;90.46;101964.63;5013959;28;20032;-64
2022/01/06 10:25:18;;;;;;;17.67;5.07;;;;;;;1.47;90.27;101954.31;5013640;28;20029;-65
2022/01/06 10:27:45;;;;;;;14.98;4.40;;;;;;;1.50;90.40;101959.38;4994678;28;20026;-64
2022/01/06 10:30:12;;;;;;;15.02;4.72;;;;;;;1.57;90.51;101954.94;5013721;28;20025;-64
2022/01/06 10:32:39;;;;;;;21.10;5.03;;;;;;;1.63;90.43;101948.81;5005386;28;20056;-65
2022/01/06 10:35:06;;;;;;;20.00;4.95;;;;;;;1.69;90.32;101953.78;5012042;28;20025;-65
2022/01/06 10:37:35;;;;;;;18.50;5.03;;;;;;;1.71;89.95;101946.88;5011901;28;20032;-64
2022/01/06 10:40:10;;;;;;;;;;;;;;;1.81;90.11;101958.56;5014042;28;20469;-64
2022/01/06 10:42:40;;;;;;;17.77;5.05;;;;;;;1.82;89.84;101950.81;5012773;28;19953;-65
2022/01/06 10:45:14;;;;;;;16.35;4.63;;;;;;;1.87;90.20;101950.72;5013288;28;20028;-64
2022/01/06 10:47:43;;;;;;;16.40;5.07;;;;;;;1.91;89.63;101954.88;5013049;28;20034;-64
2022/01/06 10:50:08;;;;;;;;;;;;;;;1.99;90.25;101960.59;5008327;28;20471;-65
2022/01/06 10:52:33;;;;;;;18.92;6.35;;;;;;;2.00;89.89;101949.47;5013342;28;19910;-65
2022/01/06 10:55:17;;;;;;;13.70;5.00;;;;;;;2.04;89.92;101951.09;5011949;28;20040;-64
2022/01/06 10:58:03;;;;;;;17.80;4.95;;;;;;;2.11;90.00;101952.56;5013301;28;20029;-64
2022/01/06 11:00:49;;;;;;;15.38;4.95;;;;;;;2.17;89.52;101956.69;5000393;28;20033;-64
2022/01/06 11:03:16;;;;;;;20.40;5.53;;;;;;;2.19;89.70;101951.53;5023394;28;20107;-65
2022/01/06 11:05:45;;;;;;;13.77;4.97;;;;;;;2.21;89.21;101947.22;5025266;28;20470;-65
2022/01/06 11:08:12;;;;;;;15.27;4.55;;;;;;;2.24;89.29;101942.84;5021000;28;20048;-64
2022/01/06 11:10:45;;;;;;;18.05;4.95;;;;;;;2.30;89.76;101937.56;5022137;28;20426;-64
2022/01/06 11:13:10;;;;;;;14.07;5.18;;;;;;;2.37;89.89;101933.94;5004360;28;20524;-64
2022/01/06 11:15:36;;;;;;;18.65;5.68;;;;;;;2.44;89.61;101939.69;5029376;28;20033;-64
2022/01/06 11:18:04;;;;;;;18.20;5.40;;;;;;;2.47;90.00;101928.53;5017312;28;20030;-65
2022/01/06 11:20:30;;;;;;;15.75;4.78;;;;;;;2.48;90.03;101928.47;5030205;28;20491;-65
2022/01/06 11:22:58;;;;;;;15.05;5.05;;;;;;;2.56;89.42;101934.19;5005221;28;20524;-65
2022/01/06 11:25:34;;;;;;;17.83;5.32;;;;;;;2.61;89.66;101927.22;5022829;28;20033;-65
2022/01/06 11:28:04;;;;;;;16.63;5.85;;;;;;;2.65;89.67;101933.94;5013122;28;20033;-65
2022/01/06 11:30:47;;;;;;;18.35;5.40;;;;;;;2.72;89.97;101928.63;5012945;28;20025;-64